Time;durP1;ratioP1;P1;durP2;ratioP2;P2;SDS_P1;SDS_P2;PMS_P1;PMS_P2;Temp;Humidity;BMP_temperature;BMP_pressure;BME280_temperature;BME280_humidity;BME280_pressure;Samples;Min_cycle;Max_cycle;Signal;HPM_P1;HPM_P2
2020/12/05 00:00:25;;;;;;;40.53;7.75;;;;;;;;;;5055937;28;20028;-55
2020/12/05 00:02:52;;;;;;;41.50;6.60;;;;;;;;;;5056060;28;20029;-60
2020/12/05 00:05:19;;;;;;;57.65;7.05;;;;;;;;;;5055525;28;20052;-62
2020/12/05 00:07:46;;;;;;;46.45;7.57;;;;;;;;;;5036206;28;20029;-58
2020/12/05 00:10:13;;;;;;;41.60;6.68;;;;;;;;;;5052968;28;20021;-59
2020/12/05 00:12:40;;;;;;;43.80;7.72;;;;;;;;;;5054652;28;20119;-59
2020/12/05 00:15:07;;;;;;;41.33;8.02;;;;;;;;;;5007983;28;20031;-56
2020/12/05 00:17:34;;;;;;;42.88;8.13;;;;;;;;;;5056839;28;20025;-53
2020/12/05 00:20:01;;;;;;;40.80;7.85;;;;;;;;;;4978331;28;20021;-57
2020/12/05 00:22:28;;;;;;;46.13;7.18;;;;;;;;;;5059733;28;20078;-54
2020/12/05 00:24:56;;;;;;;54.97;8.00;;;;;;;;;;5037232;28;20428;-58
2020/12/05 00:27:22;;;;;;;36.47;6.90;;;;;;;;;;5053437;28;20488;-53
2020/12/05 00:29:49;;;;;;;47.08;7.80;;;;;;;;;;5048571;28;20051;-55
2020/12/05 00:32:16;;;;;;;40.33;6.93;;;;;;;;;;5024481;28;20036;-57
2020/12/05 00:34:43;;;;;;;46.55;7.30;;;;;;;;;;5050749;28;20052;-58
2020/12/05 00:37:11;;;;;;;49.20;7.07;;;;;;;;;;5006464;28;20052;-57
2020/12/05 00:39:38;;;;;;;39.65;6.93;;;;;;;;;;4966273;28;20078;-55
2020/12/05 00:42:05;;;;;;;40.88;7.00;;;;;;;;;;5051233;28;20403;-57
2020/12/05 00:44:32;;;;;;;39.67;6.68;;;;;;;;;;5055812;28;20016;-55
2020/12/05 00:46:59;;;;;;;47.47;7.13;;;;;;;;;;5051076;28;20528;-57
2020/12/05 00:49:26;;;;;;;39.55;7.35;;;;;;;;;;4969092;28;20040;-56
2020/12/05 00:51:54;;;;;;;50.95;7.60;;;;;;;;;;4990749;28;20021;-55
2020/12/05 00:54:21;;;;;;;32.33;7.25;;;;;;;;;;4992967;28;20111;-56
2020/12/05 00:56:49;;;;;;;37.35;6.78;;;;;;;;;;4952082;28;20112;-55
2020/12/05 00:59:16;;;;;;;35.42;7.35;;;;;;;;;;5060515;28;20361;-51
2020/12/05 01:01:43;;;;;;;37.17;7.45;;;;;;;;;;5042543;28;20115;-56
2020/12/05 01:04:10;;;;;;;28.95;6.13;;;;;;;;;;5039079;28;20039;-57
2020/12/05 01:06:37;;;;;;;37.65;6.53;;;;;;;;;;5054559;28;20025;-54
2020/12/05 01:09:04;;;;;;;42.38;6.90;;;;;;;;;;5049370;28;20392;-52
2020/12/05 01:11:31;;;;;;;36.03;7.05;;;;;;;;;;5051757;28;20053;-55
2020/12/05 01:13:58;;;;;;;27.40;5.68;;;;;;;;;;5051445;28;20067;-56
2020/12/05 01:16:27;;;;;;;37.60;6.28;;;;;;;;;;5057130;28;20031;-55
2020/12/05 01:18:55;;;;;;;38.08;6.40;;;;;;;;;;5060099;28;20044;-56
2020/12/05 01:21:22;;;;;;;37.35;5.97;;;;;;;;;;5053429;28;20029;-58
2020/12/05 01:23:49;;;;;;;30.05;5.20;;;;;;;;;;5056217;28;20025;-58
2020/12/05 01:26:21;;;;;;;30.85;5.20;;;;;;;;;;5048641;28;20021;-58
2020/12/05 01:28:48;;;;;;;29.00;4.75;;;;;;;;;;5054537;28;20017;-58
2020/12/05 01:31:15;;;;;;;36.33;5.55;;;;;;;;;;5052424;28;20024;-56
2020/12/05 01:33:42;;;;;;;32.85;5.38;;;;;;;;;;5051985;28;20167;-56
2020/12/05 01:36:09;;;;;;;25.15;5.07;;;;;;;;;;5050283;28;20116;-48
2020/12/05 01:38:36;;;;;;;28.95;5.53;;;;;;;;;;5048940;28;20029;-49
2020/12/05 01:41:04;;;;;;;29.52;5.57;;;;;;;;;;5052760;28;20496;-52
2020/12/05 01:43:31;;;;;;;32.78;5.70;;;;;;;;;;5050739;28;20050;-54
2020/12/05 01:46:04;;;;;;;30.83;5.70;;;;;;;;;;5037670;28;20040;-50
2020/12/05 01:48:32;;;;;;;28.23;5.20;;;;;;;;;;5054564;28;20024;-49
2020/12/05 01:50:59;;;;;;;28.52;5.43;;;;;;;;;;5056045;28;20048;-54
2020/12/05 01:53:26;;;;;;;19.25;4.75;;;;;;;;;;5033976;28;20024;-51
2020/12/05 01:55:53;;;;;;;24.95;5.38;;;;;;;;;;5051562;28;20036;-50
2020/12/05 01:58:21;;;;;;;25.85;5.00;;;;;;;;;;5052568;28;20591;-51
2020/12/05 02:00:48;;;;;;;26.75;4.97;;;;;;;;;;5050290;28;20461;-52
2020/12/05 02:03:18;;;;;;;29.98;4.72;;;;;;;;;;5051037;28;20067;-53
2020/12/05 02:05:48;;;;;;;26.67;4.25;;;;;;;;;;5048679;28;20108;-52
2020/12/05 02:08:16;;;;;;;24.10;4.50;;;;;;;;;;5044180;28;20049;-50
2020/12/05 02:10:45;;;;;;;17.13;4.38;;;;;;;;;;5032364;28;20018;-50
2020/12/05 02:13:21;;;;;;;31.45;5.40;;;;;;;;;;5030892;28;20025;-51
2020/12/05 02:15:50;;;;;;;39.38;5.03;;;;;;;;;;5029231;28;20492;-50
2020/12/05 02:18:17;;;;;;;28.90;4.47;;;;;;;;;;5036040;28;20088;-52
2020/12/05 02:20:44;;;;;;;32.65;4.70;;;;;;;;;;5033528;28;20044;-51
2020/12/05 02:23:14;;;;;;;29.48;4.05;;;;;;;;;;5036263;28;20021;-53
2020/12/05 02:25:46;;;;;;;39.30;4.88;;;;;;;;;;5034347;28;20103;-52
2020/12/05 02:28:14;;;;;;;21.23;3.78;;;;;;;;;;5039893;28;20381;-52
2020/12/05 02:30:41;;;;;;;22.73;4.10;;;;;;;;;;5034031;28;20033;-54
2020/12/05 02:33:08;;;;;;;33.30;4.82;;;;;;;;;;5032434;28;20080;-53
2020/12/05 02:35:35;;;;;;;24.17;4.43;;;;;;;;;;5034847;28;20728;-53
2020/12/05 02:38:08;;;;;;;23.23;3.25;;;;;;;;;;5032484;28;20029;-53
2020/12/05 02:40:35;;;;;;;20.60;3.95;;;;;;;;;;5034447;28;20111;-53
2020/12/05 02:43:03;;;;;;;21.52;3.90;;;;;;;;;;5032706;28;20026;-51
2020/12/05 02:45:30;;;;;;;12.57;3.13;;;;;;;;;;5036151;28;20100;-53
2020/12/05 02:47:57;;;;;;;18.10;3.35;;;;;;;;;;5032728;28;20028;-55
2020/12/05 02:50:25;;;;;;;22.25;3.22;;;;;;;;;;5034433;28;20105;-55
2020/12/05 02:52:52;;;;;;;17.98;3.05;;;;;;;;;;5032061;28;20033;-50
2020/12/05 02:55:19;;;;;;;19.00;3.00;;;;;;;;;;5042491;28;20021;-54
2020/12/05 02:57:46;;;;;;;22.77;3.70;;;;;;;;;;5052749;28;20036;-54
2020/12/05 03:00:13;;;;;;;21.52;3.28;;;;;;;;;;5051780;28;20025;-52
2020/12/05 03:02:40;;;;;;;18.05;3.28;;;;;;;;;;5051503;28;20035;-55
2020/12/05 03:05:07;;;;;;;11.52;2.92;;;;;;;;;;5049439;28;20029;-55
2020/12/05 03:07:34;;;;;;;18.55;3.40;;;;;;;;;;5052994;28;20032;-55
2020/12/05 03:10:01;;;;;;;17.95;3.10;;;;;;;;;;5071145;28;20101;-51
2020/12/05 03:12:28;;;;;;;20.85;3.25;;;;;;;;;;5072633;28;20096;-50
2020/12/05 03:14:55;;;;;;;17.70;3.70;;;;;;;;;;5072927;28;20020;-52
2020/12/05 03:17:22;;;;;;;13.43;2.78;;;;;;;;;;5072753;28;20041;-50
2020/12/05 03:19:49;;;;;;;20.23;3.33;;;;;;;;;;5072733;28;20031;-50
2020/12/05 03:22:16;;;;;;;21.65;2.58;;;;;;;;;;5072470;28;20070;-53
2020/12/05 03:24:43;;;;;;;22.20;2.50;;;;;;;;;;5069317;28;20365;-52
2020/12/05 03:27:10;;;;;;;21.20;2.80;;;;;;;;;;5071449;28;20095;-50
2020/12/05 03:29:39;;;;;;;17.73;2.70;;;;;;;;;;5054264;28;20029;-50
2020/12/05 03:32:18;;;;;;;19.23;2.78;;;;;;;;;;5072718;28;20035;-49
2020/12/05 03:34:44;;;;;;;17.92;2.72;;;;;;;;;;5073353;28;20012;-50
2020/12/05 03:37:12;;;;;;;17.55;2.13;;;;;;;;;;5054859;28;20039;-49
2020/12/05 03:39:39;;;;;;;28.65;2.85;;;;;;;;;;5072554;28;20082;-51
2020/12/05 03:42:06;;;;;;;17.25;2.35;;;;;;;;;;5072350;28;20029;-50
2020/12/05 03:44:33;;;;;;;20.65;2.35;;;;;;;;;;5073259;28;20028;-52
2020/12/05 03:47:06;;;;;;;17.70;1.98;;;;;;;;;;5072719;28;20112;-51
2020/12/05 03:49:33;;;;;;;17.20;2.47;;;;;;;;;;5071525;28;20039;-50
2020/12/05 03:52:01;;;;;;;12.95;2.50;;;;;;;;;;5072861;28;20070;-52
2020/12/05 03:54:28;;;;;;;20.52;2.55;;;;;;;;;;5073330;28;20407;-50
2020/12/05 03:56:55;;;;;;;12.63;1.90;;;;;;;;;;5072757;28;20099;-50
2020/12/05 03:59:22;;;;;;;12.80;2.60;;;;;;;;;;5072562;28;20139;-51
2020/12/05 04:01:49;;;;;;;20.38;2.85;;;;;;;;;;5072899;28;20052;-54
2020/12/05 04:04:16;;;;;;;17.15;2.60;;;;;;;;;;5072661;28;20036;-50
2020/12/05 04:06:43;;;;;;;14.32;2.35;;;;;;;;;;5072705;28;20029;-51
2020/12/05 04:09:10;;;;;;;15.70;2.60;;;;;;;;;;5071012;28;20059;-49
2020/12/05 04:11:40;;;;;;;17.42;2.20;;;;;;;;;;5072553;28;20029;-52
2020/12/05 04:14:11;;;;;;;19.15;2.13;;;;;;;;;;5072352;28;20029;-50
2020/12/05 04:16:38;;;;;;;19.30;2.72;;;;;;;;;;5072668;28;20494;-51
2020/12/05 04:19:06;;;;;;;13.93;2.03;;;;;;;;;;5071795;28;20016;-54
2020/12/05 04:21:33;;;;;;;15.60;2.88;;;;;;;;;;5072505;28;20055;-53
2020/12/05 04:24:00;;;;;;;15.75;2.92;;;;;;;;;;5072904;28;20021;-49
2020/12/05 04:26:27;;;;;;;12.48;2.25;;;;;;;;;;5072116;28;20058;-52
2020/12/05 04:28:56;;;;;;;8.80;2.00;;;;;;;;;;5053820;28;20036;-54
2020/12/05 04:31:23;;;;;;;18.10;2.50;;;;;;;;;;5054940;28;20396;-52
2020/12/05 04:33:50;;;;;;;13.98;2.60;;;;;;;;;;5072179;28;20475;-50
2020/12/05 04:36:17;;;;;;;14.77;2.25;;;;;;;;;;5072032;28;20037;-51
2020/12/05 04:38:45;;;;;;;14.07;2.03;;;;;;;;;;5071979;28;20059;-52
2020/12/05 04:41:12;;;;;;;9.70;2.13;;;;;;;;;;5072205;28;20107;-52
2020/12/05 04:43:39;;;;;;;13.98;2.50;;;;;;;;;;5053975;28;20028;-50
2020/12/05 04:46:07;;;;;;;12.52;1.80;;;;;;;;;;5071746;28;20024;-55
2020/12/05 04:48:34;;;;;;;10.85;2.20;;;;;;;;;;5071253;28;20035;-54
2020/12/05 04:51:03;;;;;;;8.90;1.98;;;;;;;;;;5071901;28;20485;-52
2020/12/05 04:53:30;;;;;;;9.13;2.10;;;;;;;;;;5072000;28;20029;-52
2020/12/05 04:55:59;;;;;;;12.68;2.20;;;;;;;;;;5071917;28;20055;-53
2020/12/05 04:58:26;;;;;;;9.75;1.80;;;;;;;;;;5071058;28;20028;-49
2020/12/05 05:00:54;;;;;;;12.40;2.60;;;;;;;;;;5071330;28;20032;-48
2020/12/05 05:03:23;;;;;;;11.50;2.30;;;;;;;;;;5071823;28;20468;-52
2020/12/05 05:05:52;;;;;;;8.80;1.77;;;;;;;;;;5053456;28;20029;-50
2020/12/05 05:08:19;;;;;;;10.27;1.98;;;;;;;;;;5069841;28;20132;-52
2020/12/05 05:10:46;;;;;;;11.52;1.70;;;;;;;;;;5071989;28;20142;-50
2020/12/05 05:13:22;;;;;;;9.57;1.88;;;;;;;;;;5071643;28;20032;-50
2020/12/05 05:15:49;;;;;;;8.82;1.90;;;;;;;;;;5071176;28;20032;-51
2020/12/05 05:18:16;;;;;;;8.88;2.30;;;;;;;;;;5070944;28;20158;-49
2020/12/05 05:20:44;;;;;;;9.73;2.00;;;;;;;;;;5071650;28;20017;-51
2020/12/05 05:23:12;;;;;;;8.93;1.90;;;;;;;;;;5071726;28;20036;-52
2020/12/05 05:25:58;;;;;;;11.70;1.75;;;;;;;;;;5071224;28;20051;-52
2020/12/05 05:28:27;;;;;;;10.95;1.60;;;;;;;;;;5070854;28;20107;-52
2020/12/05 05:31:20;;;;;;;10.40;1.77;;;;;;;;;;5071607;28;20024;-52
2020/12/05 05:33:51;;;;;;;12.00;1.75;;;;;;;;;;5071453;28;20417;-52
2020/12/05 05:36:23;;;;;;;11.25;1.80;;;;;;;;;;5071163;28;20500;-50
2020/12/05 05:38:59;;;;;;;9.90;1.95;;;;;;;;;;5070909;28;20115;-53
2020/12/05 05:41:26;;;;;;;7.93;1.83;;;;;;;;;;5071449;28;20029;-53
2020/12/05 05:43:57;;;;;;;9.90;1.73;;;;;;;;;;5071038;28;20379;-52
2020/12/05 05:46:25;;;;;;;10.82;1.42;;;;;;;;;;5071269;28;20693;-52
2020/12/05 05:48:53;;;;;;;9.38;1.60;;;;;;;;;;5070848;28;20037;-49
2020/12/05 05:51:36;;;;;;;7.63;1.40;;;;;;;;;;5071348;28;20029;-53
2020/12/05 05:54:19;;;;;;;8.05;1.30;;;;;;;;;;5070880;28;20029;-53
2020/12/05 05:56:53;;;;;;;5.75;1.33;;;;;;;;;;5070974;28;20433;-53
2020/12/05 05:59:21;;;;;;;9.07;1.75;;;;;;;;;;5070987;28;20021;-50
2020/12/05 06:01:50;;;;;;;8.52;1.70;;;;;;;;;;5070882;28;20383;-51
2020/12/05 06:04:24;;;;;;;8.82;1.30;;;;;;;;;;5070924;28;20099;-50
2020/12/05 06:06:51;;;;;;;8.43;1.50;;;;;;;;;;5071222;28;20032;-49
2020/12/05 06:09:23;;;;;;;7.90;1.45;;;;;;;;;;5069575;28;20048;-49
2020/12/05 06:11:50;;;;;;;;;;;;;;;;;;5071290;28;20024;-49
2020/12/05 06:14:21;;;;;;;10.55;1.40;;;;;;;;;;5074596;28;19919;-51
2020/12/05 06:16:52;;;;;;;7.53;1.42;;;;;;;;;;5074908;28;20035;-51
2020/12/05 06:19:20;;;;;;;5.20;1.27;;;;;;;;;;5074810;28;20096;-49
2020/12/05 06:21:51;;;;;;;9.30;1.55;;;;;;;;;;5074632;28;20047;-54
2020/12/05 06:24:25;;;;;;;7.80;1.45;;;;;;;;;;5074553;28;20029;-47
2020/12/05 06:26:54;;;;;;;5.63;1.63;;;;;;;;;;5074960;28;20031;-50
2020/12/05 06:29:21;;;;;;;9.20;1.52;;;;;;;;;;5074397;28;20042;-47
2020/12/05 06:31:49;;;;;;;10.52;1.45;;;;;;;;;;5074456;28;20025;-49
2020/12/05 06:34:34;;;;;;;6.50;1.30;;;;;;;;;;5074552;28;20048;-53
2020/12/05 06:37:01;;;;;;;7.50;1.63;;;;;;;;;;5074191;28;20103;-49
2020/12/05 06:39:28;;;;;;;5.35;1.35;;;;;;;;;;5074331;28;20021;-50
2020/12/05 06:41:55;;;;;;;9.75;1.25;;;;;;;;;;5074178;28;20048;-52
2020/12/05 06:44:26;;;;;;;8.25;1.27;;;;;;;;;;5074405;28;20455;-50
2020/12/05 06:47:06;;;;;;;11.05;1.80;;;;;;;;;;5074447;28;20384;-48
2020/12/05 06:49:47;;;;;;;9.65;1.30;;;;;;;;;;5074285;28;20128;-50
2020/12/05 06:52:23;;;;;;;6.60;1.35;;;;;;;;;;5073901;28;20064;-53
2020/12/05 06:54:54;;;;;;;8.52;1.38;;;;;;;;;;5074339;28;20016;-53
2020/12/05 06:57:22;;;;;;;6.57;1.40;;;;;;;;;;5074124;28;20033;-53
2020/12/05 06:59:50;;;;;;;6.57;1.40;;;;;;;;;;5073701;28;20039;-51
2020/12/05 07:02:29;;;;;;;3.80;1.23;;;;;;;;;;5073798;28;20028;-50
2020/12/05 07:05:14;;;;;;;6.22;1.10;;;;;;;;;;5073958;28;20100;-52
2020/12/05 07:07:41;;;;;;;6.38;1.30;;;;;;;;;;5056065;28;20036;-51
2020/12/05 07:10:09;;;;;;;6.90;1.00;;;;;;;;;;5071924;28;20055;-53
2020/12/05 07:12:42;;;;;;;5.90;1.50;;;;;;;;;;5073595;28;20029;-49
2020/12/05 07:15:38;;;;;;;7.60;1.60;;;;;;;;;;5056103;28;20029;-48
2020/12/05 07:18:05;;;;;;;9.23;1.30;;;;;;;;;;5025895;28;20057;-50
2020/12/05 07:20:32;;;;;;;6.75;1.15;;;;;;;;;;5072790;28;20381;-54
2020/12/05 07:22:59;;;;;;;7.88;1.15;;;;;;;;;;5073366;28;20031;-53
2020/12/05 07:25:26;;;;;;;8.07;1.40;;;;;;;;;;5074136;28;20051;-53
2020/12/05 07:27:55;;;;;;;4.85;1.15;;;;;;;;;;5073820;28;20032;-52
2020/12/05 07:30:22;;;;;;;7.15;1.20;;;;;;;;;;5072916;28;20526;-53
2020/12/05 07:32:50;;;;;;;7.63;1.40;;;;;;;;;;5073569;28;20478;-53
2020/12/05 07:35:17;;;;;;;5.22;1.27;;;;;;;;;;5073605;28;20028;-53
2020/12/05 07:37:45;;;;;;;6.90;1.30;;;;;;;;;;5073297;28;20060;-53
2020/12/05 07:40:12;;;;;;;7.47;1.48;;;;;;;;;;5072931;28;20025;-52
2020/12/05 07:42:40;;;;;;;4.05;1.08;;;;;;;;;;5073225;28;20029;-51
2020/12/05 07:45:08;;;;;;;4.80;1.20;;;;;;;;;;5073277;28;20021;-51
2020/12/05 07:47:36;;;;;;;5.20;1.40;;;;;;;;;;5073225;28;20099;-52
2020/12/05 07:50:03;;;;;;;8.80;1.67;;;;;;;;;;5072822;28;20598;-53
2020/12/05 07:52:30;;;;;;;5.55;1.23;;;;;;;;;;5072992;28;20389;-50
2020/12/05 07:55:00;;;;;;;7.57;1.77;;;;;;;;;;5073270;28;20032;-53
2020/12/05 07:57:27;;;;;;;5.35;1.00;;;;;;;;;;5072864;28;20082;-52
2020/12/05 08:00:20;;;;;;;3.40;1.10;;;;;;;;;;5072709;28;20020;-48
2020/12/05 08:02:47;;;;;;;7.63;1.10;;;;;;;;;;5068577;28;20036;-52
2020/12/05 08:05:21;;;;;;;7.43;1.40;;;;;;;;;;5072901;28;20024;-54
2020/12/05 08:07:57;;;;;;;6.38;1.00;;;;;;;;;;5070908;28;20087;-51
2020/12/05 08:10:25;;;;;;;5.47;1.55;;;;;;;;;;5072031;28;20491;-49
2020/12/05 08:13:10;;;;;;;3.60;1.17;;;;;;;;;;5072086;28;20074;-50
2020/12/05 08:15:37;;;;;;;8.23;1.65;;;;;;;;;;5072654;28;20025;-53
2020/12/05 08:18:04;;;;;;;9.80;1.15;;;;;;;;;;5072207;28;20380;-50
2020/12/05 08:20:34;;;;;;;6.43;1.17;;;;;;;;;;5072429;28;20489;-49
2020/12/05 08:23:01;;;;;;;5.80;1.20;;;;;;;;;;5072292;28;20029;-49
2020/12/05 08:25:28;;;;;;;6.28;1.30;;;;;;;;;;5072195;28;20425;-50
2020/12/05 08:27:58;;;;;;;7.28;1.65;;;;;;;;;;5072521;28;20028;-50
2020/12/05 08:30:26;;;;;;;7.22;1.55;;;;;;;;;;5071880;28;20047;-49
2020/12/05 08:33:02;;;;;;;3.53;1.08;;;;;;;;;;5072247;28;20036;-53
2020/12/05 08:35:33;;;;;;;5.43;1.33;;;;;;;;;;5071205;28;20024;-50
2020/12/05 08:38:04;;;;;;;5.65;1.20;;;;;;;;;;5072018;28;20036;-51
2020/12/05 08:40:31;;;;;;;4.63;1.55;;;;;;;;;;5072299;28;20066;-51
2020/12/05 08:42:58;;;;;;;4.05;1.10;;;;;;;;;;5072159;28;20024;-49
2020/12/05 08:45:25;;;;;;;4.03;1.55;;;;;;;;;;5071993;28;20025;-52
2020/12/05 08:47:53;;;;;;;7.03;1.13;;;;;;;;;;5071664;28;20158;-48
2020/12/05 08:50:26;;;;;;;4.28;1.10;;;;;;;;;;5071956;28;20059;-51
2020/12/05 08:52:54;;;;;;;6.40;1.17;;;;;;;;;;5071951;28;20028;-52
2020/12/05 08:55:22;;;;;;;6.25;1.10;;;;;;;;;;5071833;28;20032;-50
2020/12/05 08:57:59;;;;;;;6.47;1.15;;;;;;;;;;5071740;28;20487;-51
2020/12/05 09:00:30;;;;;;;7.35;1.42;;;;;;;;;;5071277;28;20215;-50
2020/12/05 09:02:57;;;;;;;6.32;1.33;;;;;;;;;;5071740;28;20047;-51
2020/12/05 09:05:24;;;;;;;6.60;1.38;;;;;;;;;;5071750;28;20110;-51
2020/12/05 09:07:58;;;;;;;5.03;1.00;;;;;;;;;;5071557;28;20028;-49
2020/12/05 09:10:26;;;;;;;8.68;1.20;;;;;;;;;;5071340;28;20052;-54
2020/12/05 09:12:53;;;;;;;6.57;1.40;;;;;;;;;;5071403;28;20032;-52
2020/12/05 09:15:20;;;;;;;7.63;1.10;;;;;;;;;;5071632;28;20044;-49
2020/12/05 09:17:56;;;;;;;5.55;1.25;;;;;;;;;;5071392;28;20087;-50
2020/12/05 09:20:23;;;;;;;6.18;1.27;;;;;;;;;;5071436;28;20032;-52
2020/12/05 09:22:54;;;;;;;7.03;1.27;;;;;;;;;;5071345;28;20110;-50
2020/12/05 09:25:28;;;;;;;3.40;0.90;;;;;;;;;;5071326;28;20111;-50
2020/12/05 09:27:55;;;;;;;4.47;0.90;;;;;;;;;;5071421;28;20025;-48
2020/12/05 09:30:23;;;;;;;5.93;1.30;;;;;;;;;;5071400;28;20027;-51
2020/12/05 09:32:53;;;;;;;6.43;1.10;;;;;;;;;;5071341;28;20020;-51
2020/12/05 09:35:22;;;;;;;5.20;1.33;;;;;;;;;;5071111;28;20074;-49
2020/12/05 09:37:49;;;;;;;5.00;1.30;;;;;;;;;;5071337;28;20044;-49
2020/12/05 09:40:18;;;;;;;4.65;1.13;;;;;;;;;;5071237;28;20032;-47
2020/12/05 09:42:45;;;;;;;8.43;1.55;;;;;;;;;;5070583;28;20044;-48
2020/12/05 09:45:14;;;;;;;6.07;1.80;;;;;;;;;;5071133;28;20447;-50
2020/12/05 09:47:41;;;;;;;7.45;1.35;;;;;;;;;;5074811;28;20031;-48
2020/12/05 09:50:11;;;;;;;5.22;1.23;;;;;;;;;;5169343;22;20881;-51
2020/12/05 09:52:38;;;;;;;6.22;1.45;;;;;;;;;;5024327;28;20049;-47
2020/12/05 09:55:05;;;;;;;9.10;1.23;;;;;;;;;;5034543;28;20465;-48
2020/12/05 09:57:33;;;;;;;7.25;1.35;;;;;;;;;;5035646;28;20045;-48
2020/12/05 10:00:01;;;;;;;7.82;1.40;;;;;;;;;;5034775;28;20029;-47
2020/12/05 10:02:28;;;;;;;12.55;1.40;;;;;;;;;;5034702;28;20064;-49
2020/12/05 10:04:55;;;;;;;7.47;1.40;;;;;;;;;;5035202;28;20052;-49
2020/12/05 10:07:22;;;;;;;10.27;1.63;;;;;;;;;;5035563;28;20021;-50
2020/12/05 10:09:48;;;;;;;8.80;1.55;;;;;;;;;;5035074;28;20501;-53
2020/12/05 10:12:15;;;;;;;6.93;1.80;;;;;;;;;;5034762;28;20026;-49
2020/12/05 10:14:42;;;;;;;5.95;1.60;;;;;;;;;;5034744;28;20029;-48
2020/12/05 10:17:09;;;;;;;9.93;1.52;;;;;;;;;;5035080;28;20121;-50
2020/12/05 10:19:37;;;;;;;7.50;1.20;;;;;;;;;;5034854;28;20064;-50
2020/12/05 10:22:04;;;;;;;6.88;1.27;;;;;;;;;;5034395;28;20029;-47
2020/12/05 10:24:31;;;;;;;8.48;1.30;;;;;;;;;;5034518;28;20018;-50
2020/12/05 10:26:58;;;;;;;9.43;1.15;;;;;;;;;;5035185;28;20034;-50
2020/12/05 10:29:25;;;;;;;8.32;1.40;;;;;;;;;;5034189;28;20060;-51
2020/12/05 10:31:53;;;;;;;8.50;1.35;;;;;;;;;;5034423;28;20484;-51
2020/12/05 10:34:20;;;;;;;5.85;1.38;;;;;;;;;;5034624;28;20063;-50
2020/12/05 10:36:47;;;;;;;14.75;1.58;;;;;;;;;;5034577;28;20049;-49
2020/12/05 10:39:15;;;;;;;9.75;1.60;;;;;;;;;;5034260;28;20029;-49
2020/12/05 10:41:42;;;;;;;10.02;1.60;;;;;;;;;;5034385;28;20030;-49
2020/12/05 10:44:11;;;;;;;9.30;1.70;;;;;;;;;;5034107;28;20024;-49
2020/12/05 10:46:47;;;;;;;9.35;1.70;;;;;;;;;;5034634;28;20021;-48
2020/12/05 10:49:15;;;;;;;8.75;1.45;;;;;;;;;;5033939;28;20075;-49
2020/12/05 10:51:42;;;;;;;10.55;1.67;;;;;;;;;;5033850;28;20516;-48
2020/12/05 10:54:09;;;;;;;12.77;1.73;;;;;;;;;;5034053;28;20060;-49
2020/12/05 10:56:38;;;;;;;12.65;1.30;;;;;;;;;;5034377;28;20113;-49
2020/12/05 10:59:05;;;;;;;14.32;1.80;;;;;;;;;;5033595;28;20025;-50
2020/12/05 11:01:32;;;;;;;11.93;2.50;;;;;;;;;;5033962;28;20025;-49
2020/12/05 11:03:59;;;;;;;12.77;1.70;;;;;;;;;;5034028;28;20087;-49
2020/12/05 11:06:27;;;;;;;12.68;1.80;;;;;;;;;;5034131;28;20025;-50
2020/12/05 11:08:55;;;;;;;15.73;2.63;;;;;;;;;;5033629;28;20061;-51
2020/12/05 11:11:22;;;;;;;11.23;2.03;;;;;;;;;;5033879;28;20021;-53
2020/12/05 11:13:49;;;;;;;14.50;2.33;;;;;;;;;;5034036;28;20188;-52
2020/12/05 11:16:20;;;;;;;16.58;2.47;;;;;;;;;;5033703;28;20036;-53
2020/12/05 11:18:47;;;;;;;15.52;2.80;;;;;;;;;;5033590;28;20022;-53
2020/12/05 11:21:14;;;;;;;14.55;2.08;;;;;;;;;;5033667;28;20029;-53
2020/12/05 11:23:41;;;;;;;17.75;2.25;;;;;;;;;;5033884;28;20029;-51
2020/12/05 11:26:08;;;;;;;14.90;1.90;;;;;;;;;;5033606;28;20481;-53
2020/12/05 11:28:35;;;;;;;19.27;2.78;;;;;;;;;;5033472;28;20029;-53
2020/12/05 11:31:02;;;;;;;13.23;1.80;;;;;;;;;;5033661;28;20026;-52
2020/12/05 11:33:29;;;;;;;13.35;2.00;;;;;;;;;;5027023;28;20530;-54
2020/12/05 11:35:56;;;;;;;21.08;2.17;;;;;;;;;;5009804;28;20048;-50
2020/12/05 11:38:23;;;;;;;20.45;2.55;;;;;;;;;;4989363;28;20026;-53
2020/12/05 11:40:50;;;;;;;18.20;2.10;;;;;;;;;;5012260;28;20084;-49
2020/12/05 11:43:17;;;;;;;21.45;3.80;;;;;;;;;;5012256;28;20049;-47
2020/12/05 11:45:44;;;;;;;29.50;3.65;;;;;;;;;;5005713;28;20037;-57
2020/12/05 11:48:11;;;;;;;33.03;4.35;;;;;;;;;;5011429;28;20057;-57
2020/12/05 11:50:38;;;;;;;33.63;4.15;;;;;;;;;;5011140;28;20515;-58
2020/12/05 11:53:09;;;;;;;41.17;5.13;;;;;;;;;;5011585;28;20117;-56
2020/12/05 11:55:36;;;;;;;29.08;3.53;;;;;;;;;;5009181;28;20018;-59
2020/12/05 11:58:03;;;;;;;37.92;4.15;;;;;;;;;;5011015;28;20025;-55
2020/12/05 12:00:30;;;;;;;36.65;4.40;;;;;;;;;;5011170;28;20072;-61
2020/12/05 12:02:57;;;;;;;38.15;4.28;;;;;;;;;;5011414;28;20084;-57
2020/12/05 12:05:24;;;;;;;32.45;3.90;;;;;;;;;;5011599;28;20037;-59
2020/12/05 12:07:51;;;;;;;34.85;4.68;;;;;;;;;;5011874;28;20034;-60
2020/12/05 12:10:19;;;;;;;38.13;4.75;;;;;;;;;;5010300;28;20044;-61
2020/12/05 12:12:46;;;;;;;30.42;4.95;;;;;;;;;;5006998;28;20048;-58
2020/12/05 12:15:16;;;;;;;32.75;5.10;;;;;;;;;;5006899;28;20546;-62
2020/12/05 12:17:43;;;;;;;46.65;5.22;;;;;;;;;;4988571;28;20040;-57
2020/12/05 12:20:11;;;;;;;50.88;4.57;;;;;;;;;;5008127;28;20041;-57
2020/12/05 12:22:38;;;;;;;49.40;5.88;;;;;;;;;;5010947;28;20389;-58
2020/12/05 12:25:06;;;;;;;53.92;5.80;;;;;;;;;;5010460;28;20025;-59
2020/12/05 12:27:33;;;;;;;45.38;5.38;;;;;;;;;;5010228;28;20076;-58
2020/12/05 12:30:00;;;;;;;32.65;3.88;;;;;;;;;;5010375;28;20558;-63
2020/12/05 12:32:27;;;;;;;35.47;3.80;;;;;;;;;;5010880;28;20049;-63
2020/12/05 12:34:54;;;;;;;22.70;3.63;;;;;;;;;;5011025;28;20030;-61
2020/12/05 12:37:21;;;;;;;30.00;4.07;;;;;;;;;;5006214;28;20045;-57
2020/12/05 12:39:48;;;;;;;29.10;3.53;;;;;;;;;;4985512;28;20476;-56
2020/12/05 12:42:15;;;;;;;29.17;3.45;;;;;;;;;;5008040;28;20037;-63
2020/12/05 12:44:42;;;;;;;40.33;4.50;;;;;;;;;;5009577;28;20048;-58
2020/12/05 12:47:36;;;;;;;48.95;5.10;;;;;;;;;;5008455;28;20058;-66
2020/12/05 12:49:59;;;;;;;42.70;5.20;;;;;;;;;;5005414;28;20046;-64
2020/12/05 12:52:26;;;;;;;61.45;6.55;;;;;;;;;;5007417;28;20103;-61
2020/12/05 12:54:53;;;;;;;58.42;6.32;;;;;;;;;;5006977;28;20129;-59
2020/12/05 12:57:22;;;;;;;50.30;6.47;;;;;;;;;;5004033;28;20033;-56
2020/12/05 12:59:51;;;;;;;49.25;6.28;;;;;;;;;;5007441;28;20054;-60
2020/12/05 13:02:18;;;;;;;39.67;4.95;;;;;;;;;;5006839;28;20021;-60
2020/12/05 13:04:45;;;;;;;61.42;6.03;;;;;;;;;;5006422;28;20385;-62
2020/12/05 13:07:12;;;;;;;60.85;6.47;;;;;;;;;;5008776;28;20095;-63
2020/12/05 13:09:39;;;;;;;52.95;5.13;;;;;;;;;;5006856;28;20478;-65
2020/12/05 13:12:06;;;;;;;66.97;6.60;;;;;;;;;;5008777;28;20029;-66
2020/12/05 13:14:33;;;;;;;67.15;7.97;;;;;;;;;;5009354;28;20056;-66
2020/12/05 13:17:00;;;;;;;66.45;6.18;;;;;;;;;;5009196;28;20092;-63
2020/12/05 13:19:27;;;;;;;63.33;7.03;;;;;;;;;;5009172;28;20440;-62
2020/12/05 13:21:57;;;;;;;46.60;5.45;;;;;;;;;;5009728;28;20030;-63
2020/12/05 13:24:24;;;;;;;66.82;6.40;;;;;;;;;;5005236;28;20041;-63
2020/12/05 13:26:51;;;;;;;54.58;5.65;;;;;;;;;;5009197;28;20084;-62
2020/12/05 13:29:18;;;;;;;66.30;7.22;;;;;;;;;;5009341;28;20389;-61
2020/12/05 13:31:46;;;;;;;48.78;5.53;;;;;;;;;;5003720;28;20033;-54
2020/12/05 13:34:13;;;;;;;51.45;5.68;;;;;;;;;;5008124;28;20030;-57
2020/12/05 13:36:43;;;;;;;52.50;5.55;;;;;;;;;;4986702;28;20608;-59
2020/12/05 13:39:10;;;;;;;42.08;5.63;;;;;;;;;;5009527;28;20491;-54
2020/12/05 13:41:37;;;;;;;44.15;4.93;;;;;;;;;;5006998;28;20030;-57
2020/12/05 13:44:04;;;;;;;44.00;6.32;;;;;;;;;;5008518;28;20022;-59
2020/12/05 13:46:32;;;;;;;47.30;5.07;;;;;;;;;;5001920;28;20233;-59
2020/12/05 13:48:59;;;;;;;54.17;5.80;;;;;;;;;;5009730;28;20085;-58
2020/12/05 13:51:30;;;;;;;49.28;6.03;;;;;;;;;;5007518;28;20081;-56
2020/12/05 13:54:02;;;;;;;56.85;6.43;;;;;;;;;;4998704;28;20030;-59
2020/12/05 13:56:30;;;;;;;50.35;6.40;;;;;;;;;;5004818;28;20042;-57
2020/12/05 13:58:57;;;;;;;47.28;5.88;;;;;;;;;;5000361;28;20485;-57
2020/12/05 14:01:24;;;;;;;46.92;4.95;;;;;;;;;;5005477;28;20500;-62
2020/12/05 14:03:51;;;;;;;55.20;5.68;;;;;;;;;;5004263;28;20034;-64
2020/12/05 14:06:18;;;;;;;53.63;5.95;;;;;;;;;;5009273;28;20053;-53
2020/12/05 14:08:45;;;;;;;47.20;6.43;;;;;;;;;;5006202;28;20022;-56
2020/12/05 14:11:12;;;;;;;51.10;5.05;;;;;;;;;;5004099;28;20566;-50
2020/12/05 14:13:39;;;;;;;48.70;5.28;;;;;;;;;;5004855;28;20068;-57
2020/12/05 14:16:06;;;;;;;55.55;6.18;;;;;;;;;;5007037;28;20025;-59
2020/12/05 14:18:33;;;;;;;45.28;5.68;;;;;;;;;;4979390;28;20552;-57
2020/12/05 14:21:00;;;;;;;78.43;7.88;;;;;;;;;;5006460;28;20109;-49
2020/12/05 14:23:27;;;;;;;63.45;6.78;;;;;;;;;;5008978;28;20030;-49
2020/12/05 14:25:54;;;;;;;65.10;7.43;;;;;;;;;;5008633;28;20576;-55
2020/12/05 14:28:21;;;;;;;80.13;9.05;;;;;;;;;;5008479;28;20105;-56
2020/12/05 14:30:48;;;;;;;69.25;8.25;;;;;;;;;;5008629;28;20062;-53
2020/12/05 14:33:16;;;;;;;58.90;9.63;;;;;;;;;;5008044;28;20030;-57
2020/12/05 14:35:47;;;;;;;57.10;7.68;;;;;;;;;;5012089;28;20026;-56
2020/12/05 14:38:14;;;;;;;55.10;7.20;;;;;;;;;;5011584;28;20115;-62
2020/12/05 14:40:41;;;;;;;54.60;7.78;;;;;;;;;;5011421;28;20030;-59
2020/12/05 14:43:08;;;;;;;78.25;6.90;;;;;;;;;;5007254;28;20022;-54